Time;durP1;ratioP1;P1;durP2;ratioP2;P2;SDS_P1;SDS_P2;PMS_P1;PMS_P2;Temp;Humidity;BMP_temperature;BMP_pressure;BME280_temperature;BME280_humidity;BME280_pressure;Samples;Min_cycle;Max_cycle;Signal;HPM_P1;HPM_P2
2022/11/11 00:00:39;;;;;;;9.15;4.60;;;13.30;99.90;;;;;;5072307;28;20479;-85
2022/11/11 00:03:11;;;;;;;9.00;4.53;;;13.20;99.90;;;;;;5071445;28;20231;-88
2022/11/11 00:05:44;;;;;;;8.05;4.88;;;13.20;99.90;;;;;;5070445;28;20230;-84
2022/11/11 00:08:12;;;;;;;9.50;3.72;;;13.20;99.90;;;;;;5072846;28;20234;-86
2022/11/11 00:13:45;;;;;;;15.20;11.63;;;13.10;99.90;;;;;;5064051;28;20243;-86
2022/11/11 00:16:14;;;;;;;22.15;11.73;;;13.00;99.90;;;;;;5073960;28;20339;-85
2022/11/11 00:27:28;;;;;;;5.60;4.03;;;13.00;99.90;;;;;;5074856;28;20648;-84
2022/11/11 00:29:56;;;;;;;5.60;4.03;;;12.90;99.90;;;;;;5074029;28;20235;-84
2022/11/11 00:32:29;;;;;;;6.40;4.57;;;12.90;99.90;;;;;;5074626;28;20220;-84
2022/11/11 00:37:53;;;;;;;6.85;4.10;;;12.90;99.90;;;;;;5072403;28;20238;-85
2022/11/11 00:40:22;;;;;;;9.85;4.15;;;12.90;99.90;;;;;;5074364;28;20228;-85
2022/11/11 00:42:49;;;;;;;6.28;3.53;;;12.90;99.90;;;;;;5053925;28;20224;-85
2022/11/11 00:45:17;;;;;;;9.90;3.70;;;12.80;99.90;;;;;;5067446;28;20256;-85
2022/11/11 00:53:47;;;;;;;;;;;;;;;;;;;;;
2022/11/11 00:56:16;;;;;;;6.25;3.53;;;12.80;99.90;;;;;;5066974;28;20243;-87
2022/11/11 00:58:43;;;;;;;7.50;4.25;;;12.80;99.90;;;;;;5074667;28;20244;-85
2022/11/11 01:01:10;;;;;;;6.18;3.70;;;12.80;99.90;;;;;;5074778;28;20227;-86
2022/11/11 01:03:40;;;;;;;7.25;3.72;;;12.70;99.90;;;;;;5064234;28;20228;-86
2022/11/11 01:06:11;;;;;;;9.90;4.25;;;12.70;99.90;;;;;;5063418;28;20220;-86
2022/11/11 01:08:38;;;;;;;8.48;4.40;;;12.70;99.90;;;;;;5074576;28;20228;-85
2022/11/11 01:11:16;;;;;;;4.63;3.63;;;12.60;99.90;;;;;;5064512;28;20224;-85
2022/11/11 01:13:50;;;;;;;6.68;3.53;;;12.60;99.90;;;;;;5072951;28;20538;-85
2022/11/11 01:16:18;;;;;;;9.48;3.95;;;12.60;99.90;;;;;;5069738;28;20281;-85
2022/11/11 01:22:22;;;;;;;7.28;3.72;;;12.60;99.90;;;;;;4992995;28;20233;-85
2022/11/11 01:24:50;;;;;;;8.95;5.45;;;12.50;99.90;;;;;;5021410;28;20597;-85
2022/11/11 01:27:18;;;;;;;8.88;4.65;;;12.50;99.90;;;;;;5051823;28;20576;-86
2022/11/11 01:29:48;;;;;;;8.65;4.15;;;12.50;99.90;;;;;;5074440;28;20700;-86
2022/11/11 01:32:16;;;;;;;5.30;3.50;;;12.60;99.90;;;;;;5074918;28;20727;-86
2022/11/11 01:34:43;;;;;;;8.98;3.60;;;12.60;99.90;;;;;;5073048;28;20660;-78
2022/11/11 01:37:10;;;;;;;4.80;3.28;;;12.50;99.90;;;;;;5073371;28;20220;-78
2022/11/11 01:39:38;;;;;;;4.70;3.70;;;12.50;99.90;;;;;;5072696;28;20236;-78
2022/11/11 01:42:05;;;;;;;6.85;3.33;;;12.50;99.90;;;;;;5066770;28;20285;-79
2022/11/11 01:44:45;;;;;;;7.22;2.58;;;12.50;99.90;;;;;;5060262;28;20698;-78
2022/11/11 01:47:15;;;;;;;10.25;4.32;;;12.50;99.90;;;;;;5067890;28;20231;-78
2022/11/11 01:49:48;;;;;;;6.72;3.65;;;12.50;99.90;;;;;;5071961;28;20306;-78
2022/11/11 01:52:19;;;;;;;8.20;3.60;;;12.50;99.90;;;;;;5071305;28;20208;-77
2022/11/11 01:54:50;;;;;;;4.45;3.33;;;12.50;99.90;;;;;;5072355;28;20688;-78
2022/11/11 01:57:24;;;;;;;7.85;3.92;;;12.50;99.90;;;;;;5072180;28;20223;-79
2022/11/11 01:59:59;;;;;;;6.97;2.67;;;12.40;99.90;;;;;;5071662;28;20318;-78
2022/11/11 02:02:32;;;;;;;5.60;3.33;;;12.40;99.90;;;;;;5060582;28;20310;-79
2022/11/11 02:07:46;;;;;;;5.45;2.80;;;12.40;99.90;;;;;;5068156;28;20253;-80
2022/11/11 02:10:13;;;;;;;12.48;3.30;;;12.40;99.90;;;;;;5071682;28;20234;-81
2022/11/11 02:15:24;;;;;;;5.90;3.20;;;12.30;99.90;;;;;;5069133;28;20234;-78
2022/11/11 02:17:56;;;;;;;5.18;3.40;;;12.40;99.90;;;;;;5071517;28;20244;-78
2022/11/11 02:20:25;;;;;;;8.57;3.60;;;12.40;99.90;;;;;;5063644;28;20232;-79
2022/11/11 02:22:58;;;;;;;6.85;3.38;;;12.30;99.90;;;;;;5071845;28;20235;-79
2022/11/11 02:25:29;;;;;;;5.18;3.30;;;12.30;99.90;;;;;;5072225;28;20669;-78
2022/11/11 02:28:00;;;;;;;3.92;3.50;;;12.30;99.90;;;;;;5063722;28;20740;-78
2022/11/11 02:30:28;;;;;;;6.05;2.75;;;12.30;99.90;;;;;;5050862;28;20266;-76
2022/11/11 02:32:55;;;;;;;9.20;2.80;;;12.30;99.90;;;;;;5050750;28;20669;-76
2022/11/11 02:35:26;;;;;;;6.28;3.28;;;12.40;99.90;;;;;;5052005;28;20220;-78
2022/11/11 02:37:53;;;;;;;4.60;3.22;;;12.40;99.90;;;;;;5051296;28;20248;-77
2022/11/11 02:40:24;;;;;;;10.82;4.68;;;12.40;99.90;;;;;;5050331;28;20237;-79
2022/11/11 02:42:52;;;;;;;3.70;2.65;;;12.30;99.90;;;;;;5044329;28;20614;-78
2022/11/11 02:45:20;;;;;;;5.07;3.53;;;12.40;99.90;;;;;;5062382;28;20224;-77
2022/11/11 02:47:48;;;;;;;3.75;2.90;;;12.40;99.90;;;;;;5070819;28;20247;-77
2022/11/11 02:50:18;;;;;;;7.28;3.15;;;12.40;99.90;;;;;;5072752;28;20224;-78
2022/11/11 02:52:45;;;;;;;3.38;3.05;;;12.30;99.90;;;;;;5071962;28;20324;-78
2022/11/11 02:55:14;;;;;;;4.82;4.43;;;12.30;99.90;;;;;;5075825;28;20607;-79
2022/11/11 02:57:42;;;;;;;10.93;8.45;;;12.30;99.90;;;;;;5076370;28;20227;-78
2022/11/11 03:00:13;;;;;;;11.95;7.82;;;12.30;99.90;;;;;;5066833;28;20240;-77
2022/11/11 03:02:40;;;;;;;8.60;5.68;;;12.30;99.90;;;;;;5076217;28;20228;-79
2022/11/11 03:05:17;;;;;;;4.28;2.90;;;12.40;99.90;;;;;;5075807;28;20608;-78
2022/11/11 03:07:45;;;;;;;7.13;3.20;;;12.30;99.90;;;;;;5075858;28;20235;-78
2022/11/11 03:10:12;;;;;;;7.57;4.35;;;12.30;99.90;;;;;;5074923;28;20238;-77
2022/11/11 03:12:39;;;;;;;5.00;3.15;;;12.30;99.90;;;;;;5076165;28;20530;-77
2022/11/11 03:15:07;;;;;;;4.82;2.85;;;12.40;99.90;;;;;;5072629;28;20247;-77
2022/11/11 03:17:39;;;;;;;6.50;3.78;;;12.40;99.90;;;;;;5075388;28;20645;-78
2022/11/11 03:23:01;;;;;;;5.40;3.08;;;12.40;99.90;;;;;;5054569;28;20228;-79
2022/11/11 03:25:40;;;;;;;3.80;3.17;;;12.40;99.90;;;;;;5057969;28;20302;-77
2022/11/11 03:28:09;;;;;;;4.32;3.00;;;12.40;99.90;;;;;;5074599;28;20255;-78
2022/11/11 03:30:37;;;;;;;7.82;3.97;;;12.40;99.90;;;;;;5075627;28;20311;-77
2022/11/11 03:33:06;;;;;;;7.47;3.15;;;12.40;99.90;;;;;;5074919;28;20293;-77
2022/11/11 03:35:34;;;;;;;8.90;3.58;;;12.40;99.90;;;;;;5074703;28;20235;-77
2022/11/11 03:38:22;;;;;;;7.00;4.13;;;12.40;99.90;;;;;;5073046;28;20224;-76
2022/11/11 03:40:51;;;;;;;4.38;3.30;;;12.30;99.90;;;;;;5075007;28;20632;-76
2022/11/11 03:43:20;;;;;;;4.15;3.35;;;12.30;99.90;;;;;;5074889;28;20661;-78
2022/11/11 03:45:49;;;;;;;4.57;3.75;;;12.30;99.90;;;;;;5075581;28;20635;-78
2022/11/11 03:48:17;;;;;;;4.85;3.25;;;12.20;99.90;;;;;;5074537;28;20219;-78
2022/11/11 03:50:46;;;;;;;7.30;3.20;;;12.20;99.90;;;;;;5075189;28;20278;-77
2022/11/11 03:53:13;;;;;;;8.57;3.25;;;12.20;99.90;;;;;;5074535;28;20274;-80
2022/11/11 03:55:45;;;;;;;9.00;3.47;;;12.20;99.90;;;;;;5074903;28;20238;-78
2022/11/11 03:58:13;;;;;;;6.93;4.28;;;12.20;99.90;;;;;;5074354;28;20224;-80
2022/11/11 04:00:40;;;;;;;6.93;3.38;;;12.20;99.90;;;;;;5075042;28;20232;-77
2022/11/11 04:11:30;;;;;;;7.70;4.18;;;12.20;99.90;;;;;;5074898;28;20227;-78
2022/11/11 04:16:44;;;;;;;3.72;3.35;;;12.10;99.90;;;;;;5074005;28;20243;-79
2022/11/11 04:21:57;;;;;;;4.35;3.55;;;12.10;99.90;;;;;;5074079;28;20568;-77
2022/11/11 04:27:13;;;;;;;5.53;3.17;;;12.10;99.90;;;;;;5038964;28;20223;-79
2022/11/11 04:29:40;;;;;;;4.80;2.83;;;12.10;99.90;;;;;;5066709;28;20220;-79
2022/11/11 04:34:55;;;;;;;9.07;4.20;;;12.10;99.90;;;;;;5072724;28;20645;-79
2022/11/11 04:37:25;;;;;;;4.10;3.40;;;12.00;99.90;;;;;;5073472;28;20277;-78
2022/11/11 04:42:38;;;;;;;6.05;3.75;;;12.00;99.90;;;;;;5071697;28;20230;-79
2022/11/11 04:47:55;;;;;;;5.28;3.70;;;12.00;99.90;;;;;;5072553;28;20230;-78
2022/11/11 04:50:22;;;;;;;10.65;4.75;;;12.00;99.90;;;;;;5073693;28;20621;-80
2022/11/11 04:52:51;;;;;;;6.15;3.80;;;12.00;99.90;;;;;;5074655;28;20224;-79
2022/11/11 04:58:07;;;;;;;4.30;3.30;;;12.00;99.90;;;;;;5039641;28;20228;-78
2022/11/11 05:00:34;;;;;;;16.83;10.45;;;12.00;99.90;;;;;;5073932;28;20227;-79
2022/11/11 05:03:16;;;;;;;10.30;8.25;;;12.00;99.90;;;;;;5073820;28;20274;-79
2022/11/11 05:11:19;;;;;;;5.47;4.93;;;12.00;99.90;;;;;;5074244;28;20235;-79
2022/11/11 05:22:11;;;;;;;9.63;4.05;;;12.10;99.90;;;;;;5074347;28;20250;-79
2022/11/11 05:27:27;;;;;;;5.97;4.13;;;12.10;99.90;;;;;;5073200;28;20437;-79
2022/11/11 05:29:57;;;;;;;5.32;3.13;;;12.10;99.90;;;;;;5074153;28;20223;-79
2022/11/11 05:32:25;;;;;;;12.05;3.25;;;12.10;99.90;;;;;;5072720;28;20227;-78
2022/11/11 05:34:52;;;;;;;8.50;3.92;;;12.10;99.90;;;;;;5073721;28;20234;-78
2022/11/11 05:37:22;;;;;;;6.57;3.75;;;12.20;99.90;;;;;;5072749;28;20323;-78
2022/11/11 05:39:50;;;;;;;5.38;3.03;;;12.20;99.90;;;;;;5073990;28;20232;-78
2022/11/11 05:42:21;;;;;;;8.52;3.45;;;12.20;99.90;;;;;;5073196;28;20240;-78
2022/11/11 05:44:48;;;;;;;3.90;3.13;;;12.20;99.90;;;;;;5070054;28;20215;-79
2022/11/11 05:47:15;;;;;;;6.95;3.38;;;12.20;99.90;;;;;;5076278;28;20618;-77
2022/11/11 05:49:45;;;;;;;4.00;3.20;;;12.20;99.90;;;;;;5072708;28;20638;-77
2022/11/11 05:52:15;;;;;;;4.15;3.65;;;12.20;99.90;;;;;;5072850;28;20299;-79
2022/11/11 05:54:44;;;;;;;11.75;3.50;;;12.20;99.90;;;;;;5072584;28;20220;-79
2022/11/11 05:57:13;;;;;;;6.45;3.80;;;12.20;99.90;;;;;;5073714;28;20573;-79
2022/11/11 05:59:40;;;;;;;10.82;4.18;;;12.20;99.90;;;;;;5063982;28;20684;-77
2022/11/11 06:02:07;;;;;;;8.55;4.30;;;12.20;99.90;;;;;;5087009;28;20670;-78
2022/11/11 06:04:35;;;;;;;9.25;5.55;;;12.30;99.90;;;;;;5072497;28;20387;-78
2022/11/11 06:07:02;;;;;;;11.13;5.63;;;12.20;99.90;;;;;;5072562;28;20310;-79
2022/11/11 06:09:47;;;;;;;8.60;7.28;;;12.20;99.90;;;;;;5055902;28;20228;-78
2022/11/11 06:12:16;;;;;;;12.95;8.13;;;12.20;99.90;;;;;;5072427;28;20228;-79
2022/11/11 06:14:43;;;;;;;6.05;4.55;;;12.20;99.90;;;;;;5073291;28;20281;-79
2022/11/11 06:17:10;;;;;;;11.48;5.15;;;12.20;99.90;;;;;;5072421;28;20228;-78
2022/11/11 06:19:38;;;;;;;7.68;4.53;;;12.20;99.90;;;;;;5065592;28;20224;-79
2022/11/11 06:22:05;;;;;;;7.15;6.32;;;12.20;99.90;;;;;;5084996;28;20216;-79
2022/11/11 06:24:35;;;;;;;16.40;11.38;;;12.20;99.90;;;;;;5073133;28;20243;-79
2022/11/11 06:27:02;;;;;;;17.63;12.93;;;12.20;99.90;;;;;;5072629;28;20220;-78
2022/11/11 06:29:31;;;;;;;13.63;10.20;;;12.20;99.90;;;;;;5071475;28;20232;-77
2022/11/11 06:32:05;;;;;;;13.43;8.05;;;12.20;99.90;;;;;;5064069;28;20234;-79
2022/11/11 06:34:32;;;;;;;9.73;6.90;;;12.20;99.90;;;;;;5072255;28;20270;-77
2022/11/11 06:37:01;;;;;;;9.07;5.60;;;12.20;99.90;;;;;;5073538;28;20220;-77
2022/11/11 06:39:28;;;;;;;7.82;4.63;;;12.20;99.90;;;;;;5072468;28;20232;-77
2022/11/11 06:41:55;;;;;;;7.30;4.90;;;12.20;99.90;;;;;;5073733;28;20603;-78
2022/11/11 06:44:22;;;;;;;6.32;4.57;;;12.20;99.90;;;;;;5071796;28;20598;-78
2022/11/11 06:46:50;;;;;;;5.57;4.15;;;12.20;99.90;;;;;;5073026;28;20248;-78
2022/11/11 06:49:18;;;;;;;8.30;3.65;;;12.20;99.90;;;;;;5073061;28;20251;-79
2022/11/11 06:51:45;;;;;;;3.72;3.30;;;12.30;99.90;;;;;;5072363;28;20243;-79
2022/11/11 06:59:48;;;;;;;12.30;8.48;;;12.30;99.90;;;;;;5036350;28;20572;-78
2022/11/11 07:02:21;;;;;;;7.80;4.10;;;12.20;99.90;;;;;;5052673;28;20226;-79
2022/11/11 07:04:47;;;;;;;14.50;7.53;;;12.20;99.90;;;;;;5052520;28;20248;-77
2022/11/11 07:07:16;;;;;;;9.05;5.68;;;12.20;99.90;;;;;;5051529;28;20233;-77
2022/11/11 07:09:46;;;;;;;7.05;3.95;;;12.30;99.90;;;;;;5044132;28;20233;-77
2022/11/11 07:12:13;;;;;;;5.55;3.50;;;12.30;99.90;;;;;;5051532;28;20227;-77
2022/11/11 07:14:41;;;;;;;7.07;3.60;;;12.30;99.90;;;;;;5052279;28;20220;-77
2022/11/11 07:17:08;;;;;;;3.13;2.83;;;12.20;99.90;;;;;;5051470;28;20579;-79
2022/11/11 07:19:37;;;;;;;5.57;3.58;;;12.20;99.90;;;;;;5052515;28;20666;-77
2022/11/11 07:22:08;;;;;;;5.20;3.15;;;12.20;99.90;;;;;;5053258;28;20226;-77
2022/11/11 07:24:35;;;;;;;5.55;3.17;;;12.20;99.90;;;;;;5051817;28;20575;-76
2022/11/11 07:27:03;;;;;;;6.50;2.97;;;12.20;99.90;;;;;;5052765;28;20225;-79
2022/11/11 07:29:40;;;;;;;5.72;2.88;;;12.20;99.90;;;;;;5038450;28;20228;-78
2022/11/11 07:32:07;;;;;;;5.32;3.25;;;12.20;99.90;;;;;;5048379;28;20228;-79
2022/11/11 07:34:37;;;;;;;5.53;3.15;;;12.20;99.90;;;;;;5053374;28;20575;-77
2022/11/11 07:37:06;;;;;;;6.25;3.45;;;12.30;99.90;;;;;;5052239;28;20225;-76
2022/11/11 07:39:36;;;;;;;6.15;3.22;;;12.20;99.90;;;;;;5055988;28;20232;-78
2022/11/11 07:42:06;;;;;;;6.43;3.25;;;12.30;99.90;;;;;;5056088;28;20640;-78
2022/11/11 07:44:33;;;;;;;8.27;3.00;;;12.30;99.90;;;;;;5054427;28;20235;-78
2022/11/11 07:47:00;;;;;;;7.43;4.57;;;12.40;99.90;;;;;;5056093;28;20221;-78
2022/11/11 07:49:27;;;;;;;7.30;6.35;;;12.50;99.90;;;;;;5054413;28;20243;-78
2022/11/11 07:51:56;;;;;;;6.38;5.70;;;12.50;99.90;;;;;;5055545;28;20225;-77
2022/11/11 07:54:23;;;;;;;7.00;4.85;;;12.60;99.90;;;;;;5054816;28;20303;-77
2022/11/11 07:56:51;;;;;;;7.90;3.80;;;12.60;99.90;;;;;;5055514;28;20225;-78
2022/11/11 07:59:18;;;;;;;13.02;7.28;;;12.60;99.90;;;;;;5054140;28;20621;-77
2022/11/11 08:01:46;;;;;;;18.67;11.15;;;12.60;99.90;;;;;;5054860;28;20231;-77
2022/11/11 08:04:13;;;;;;;11.48;9.00;;;12.60;99.90;;;;;;5054738;28;20225;-78
2022/11/11 08:06:42;;;;;;;8.88;6.80;;;12.60;99.90;;;;;;5055608;28;20225;-79
2022/11/11 08:09:13;;;;;;;7.95;5.50;;;12.70;99.90;;;;;;5054165;28;20282;-79
2022/11/11 08:14:28;;;;;;;5.20;3.90;;;12.70;99.90;;;;;;5056696;28;20269;-78
2022/11/11 08:17:06;;;;;;;4.50;3.83;;;12.70;99.90;;;;;;5054680;28;20695;-78
2022/11/11 08:19:36;;;;;;;6.80;4.03;;;12.60;99.90;;;;;;5054280;28;20224;-77
2022/11/11 08:22:05;;;;;;;4.25;3.40;;;12.70;99.90;;;;;;5055180;28;20224;-80
2022/11/11 08:24:34;;;;;;;5.05;4.30;;;12.70;99.90;;;;;;5054697;28;20229;-80
2022/11/11 08:27:02;;;;;;;4.65;3.33;;;12.70;99.90;;;;;;5055183;28;20245;-80
2022/11/11 08:29:31;;;;;;;5.72;2.85;;;12.70;99.90;;;;;;5059526;28;20227;-80
2022/11/11 08:31:59;;;;;;;3.92;2.85;;;12.70;99.90;;;;;;5055294;28;20220;-80
2022/11/11 08:34:26;;;;;;;5.47;3.50;;;12.80;99.90;;;;;;5055320;28;20228;-78
2022/11/11 08:36:53;;;;;;;3.33;3.03;;;12.70;99.90;;;;;;5055017;28;20224;-80
2022/11/11 08:39:20;;;;;;;4.80;3.33;;;12.80;99.90;;;;;;5054387;28;20220;-78
2022/11/11 08:41:54;;;;;;;8.07;3.50;;;12.90;99.90;;;;;;5054070;28;20217;-78
2022/11/11 08:44:23;;;;;;;8.52;3.20;;;12.90;99.90;;;;;;5055058;28;20673;-78
2022/11/11 08:46:52;;;;;;;8.38;3.85;;;13.00;99.90;;;;;;5052815;28;20224;-78
2022/11/11 08:49:19;;;;;;;5.43;3.42;;;13.00;99.90;;;;;;5052834;28;20229;-78
2022/11/11 08:51:47;;;;;;;7.47;3.47;;;13.00;99.90;;;;;;5053600;28;20248;-77
2022/11/11 08:54:17;;;;;;;5.88;3.50;;;13.10;99.90;;;;;;5054467;28;20224;-78
2022/11/11 08:56:45;;;;;;;3.45;3.15;;;13.20;99.90;;;;;;5044329;28;20225;-76
2022/11/11 08:59:13;;;;;;;7.15;5.82;;;13.30;99.90;;;;;;5054137;28;20560;-77
2022/11/11 09:01:40;;;;;;;7.13;6.05;;;13.30;99.90;;;;;;5052682;28;20228;-78
2022/11/11 09:04:07;;;;;;;7.60;5.23;;;13.40;99.90;;;;;;5055014;28;20252;-78
2022/11/11 09:06:52;;;;;;;6.40;4.40;;;13.40;99.90;;;;;;5065107;27;21050;-78
2022/11/11 09:09:22;;;;;;;6.37;3.90;;;13.50;99.90;;;;;;5080467;28;20814;-78
2022/11/11 09:11:49;;;;;;;8.00;4.28;;;13.50;99.90;;;;;;5091976;28;20453;-79
2022/11/11 09:14:16;;;;;;;5.07;3.50;;;13.50;99.90;;;;;;5093207;28;20223;-79
2022/11/11 09:16:44;;;;;;;5.57;3.95;;;13.60;99.90;;;;;;5093408;28;20257;-78
2022/11/11 09:19:11;;;;;;;4.15;3.40;;;13.60;99.90;;;;;;5094921;28;20234;-79
2022/11/11 09:21:38;;;;;;;6.60;3.70;;;13.70;99.90;;;;;;5096400;28;20231;-79
2022/11/11 09:24:09;;;;;;;6.72;2.83;;;13.70;99.90;;;;;;5098490;28;20465;-76
2022/11/11 09:26:37;;;;;;;4.37;3.63;;;13.70;99.90;;;;;;5087180;28;20227;-80
2022/11/11 09:29:04;;;;;;;5.97;3.40;;;13.80;99.90;;;;;;5094392;28;20480;-76
2022/11/11 09:31:33;;;;;;;6.97;3.77;;;13.80;99.90;;;;;;5095917;28;20489;-78
2022/11/11 09:34:00;;;;;;;7.17;5.20;;;13.80;99.90;;;;;;5094778;28;20466;-78
2022/11/11 09:36:29;;;;;;;6.75;4.10;;;13.80;99.90;;;;;;5095914;28;20802;-78
2022/11/11 09:38:59;;;;;;;9.15;6.43;;;13.90;99.90;;;;;;5092619;28;20235;-78
2022/11/11 09:41:38;;;;;;;10.60;6.10;;;13.90;99.90;;;;;;5099983;28;20224;-78
2022/11/11 09:44:05;;;;;;;5.47;4.20;;;13.90;99.90;;;;;;5097706;28;20475;-78
2022/11/11 09:46:37;;;;;;;7.60;5.23;;;14.00;99.90;;;;;;5095527;28;20480;-78
2022/11/11 09:49:25;;;;;;;6.73;4.60;;;14.00;99.90;;;;;;5094668;28;20501;-78
2022/11/11 09:51:58;;;;;;;5.23;4.37;;;14.00;99.90;;;;;;5090036;28;20502;-78
2022/11/11 09:54:34;;;;;;;6.90;4.93;;;14.00;99.90;;;;;;5096951;28;20476;-78
2022/11/11 09:57:07;;;;;;;10.50;5.70;;;14.10;99.90;;;;;;5088402;28;20222;-79
2022/11/11 09:59:44;;;;;;;6.03;4.60;;;14.10;99.90;;;;;;5097390;28;20470;-78
2022/11/11 10:02:24;;;;;;;4.10;3.00;;;14.10;99.90;;;;;;5090242;28;20492;-78
2022/11/11 10:05:00;;;;;;;6.30;5.30;;;14.10;99.90;;;;;;5091569;28;20496;-78
2022/11/11 10:07:36;;;;;;;9.40;5.80;;;14.20;99.90;;;;;;5088944;28;20513;-78
2022/11/11 10:10:15;;;;;;;7.40;6.20;;;14.20;99.90;;;;;;5088570;28;20469;-79
2022/11/11 10:12:49;;;;;;;5.80;4.40;;;14.30;99.90;;;;;;5089392;28;20469;-77
2022/11/11 10:15:17;;;;;;;5.83;5.23;;;14.30;99.90;;;;;;5088426;28;20496;-77
2022/11/11 10:18:02;;;;;;;7.93;3.80;;;14.40;99.90;;;;;;5078904;28;20466;-78
2022/11/11 10:20:33;;;;;;;10.20;3.70;;;14.40;99.90;;;;;;5075178;28;20523;-78
2022/11/11 10:23:05;;;;;;;8.57;4.20;;;14.40;99.90;;;;;;5076005;28;20538;-76
2022/11/11 10:25:34;;;;;;;8.83;5.10;;;14.40;99.90;;;;;;5075508;28;20546;-77
2022/11/11 10:28:03;;;;;;;10.33;8.00;;;14.40;99.90;;;;;;5081121;28;20931;-79
2022/11/11 10:30:32;;;;;;;5.40;3.20;;;14.40;99.90;;;;;;5076066;28;20470;-77
2022/11/11 10:33:02;;;;;;;5.57;4.20;;;14.50;99.90;;;;;;5075941;28;20470;-79
2022/11/11 10:35:31;;;;;;;4.90;4.40;;;14.50;99.90;;;;;;5065175;28;20463;-79
2022/11/11 10:38:23;;;;;;;5.93;5.30;;;14.50;99.90;;;;;;5076978;28;20470;-79
2022/11/11 10:40:53;;;;;;;12.70;8.47;;;14.50;99.90;;;;;;5076524;28;20478;-78
2022/11/11 10:43:24;;;;;;;10.90;8.03;;;14.50;99.90;;;;;;5076288;28;20469;-79
2022/11/11 10:46:05;;;;;;;11.17;7.80;;;14.60;99.90;;;;;;5082526;28;20480;-79
2022/11/11 10:48:58;;;;;;;;;;;;;;;;;;;;;
2022/11/11 10:51:29;;;;;;;6.93;5.53;;;14.70;99.90;;;;;;5076492;28;20480;-79
2022/11/11 10:54:17;;;;;;;6.60;4.63;;;14.70;99.90;;;;;;5082843;28;20843;-79
2022/11/11 10:56:57;;;;;;;9.97;4.53;;;14.70;99.90;;;;;;5085755;28;20527;-79
2022/11/11 10:59:32;;;;;;;3.70;2.80;;;14.70;99.90;;;;;;5089882;28;20462;-78
2022/11/11 11:02:15;;;;;;;3.70;2.67;;;14.70;99.90;;;;;;5092902;28;20468;-79
2022/11/11 11:04:58;;;;;;;5.07;2.93;;;14.80;99.90;;;;;;5087261;28;20450;-78
2022/11/11 11:07:29;;;;;;;10.07;3.47;;;14.80;99.90;;;;;;5089042;28;20538;-78
2022/11/11 11:12:51;;;;;;;4.00;2.83;;;14.90;99.90;;;;;;5075284;28;20478;-77
2022/11/11 11:15:28;;;;;;;5.70;5.00;;;14.90;99.90;;;;;;5088818;28;20526;-78
2022/11/11 11:18:01;;;;;;;10.60;8.70;;;14.90;99.90;;;;;;5085021;28;20813;-77
2022/11/11 11:20:28;;;;;;;8.20;6.97;;;14.90;99.90;;;;;;5091732;28;20478;-78
2022/11/11 11:23:41;;;;;;;7.77;6.20;;;14.90;99.90;;;;;;5084929;28;20446;-78
2022/11/11 11:26:10;;;;;;;4.30;3.67;;;14.90;99.90;;;;;;5096894;28;20473;-78
2022/11/11 11:28:53;;;;;;;3.73;3.30;;;15.00;99.90;;;;;;5092953;28;20473;-77
2022/11/11 11:31:36;;;;;;;3.10;2.47;;;15.10;99.90;;;;;;5092331;28;20480;-79
2022/11/11 11:34:04;;;;;;;6.20;2.47;;;15.10;99.90;;;;;;5095272;28;20457;-77
2022/11/11 11:36:34;;;;;;;3.40;2.40;;;15.10;99.90;;;;;;5089985;28;20480;-78
2022/11/11 11:39:01;;;;;;;7.37;4.20;;;15.10;99.90;;;;;;5095755;28;20526;-79
2022/11/11 11:41:49;;;;;;;5.43;3.73;;;15.10;99.90;;;;;;5080354;28;20483;-79
2022/11/11 11:44:26;;;;;;;4.10;3.00;;;15.10;99.90;;;;;;5093151;28;20505;-78
2022/11/11 11:47:22;;;;;;;4.00;3.03;;;15.20;99.90;;;;;;5092611;28;20530;-77
2022/11/11 11:50:17;;;;;;;3.83;3.33;;;15.20;99.90;;;;;;5085958;28;20512;-78
2022/11/11 11:53:02;;;;;;;4.33;3.87;;;15.20;99.90;;;;;;5097553;28;20474;-77
2022/11/11 11:55:51;;;;;;;4.97;3.60;;;15.30;99.90;;;;;;5091981;28;20462;-79
2022/11/11 11:58:34;;;;;;;4.03;2.40;;;15.30;99.90;;;;;;5090410;28;20454;-78
2022/11/11 12:01:06;;;;;;;3.90;3.20;;;15.30;99.90;;;;;;5089441;28;20570;-78
2022/11/11 12:03:59;;;;;;;6.03;2.60;;;15.40;99.90;;;;;;5097520;28;20513;-79
2022/11/11 12:06:39;;;;;;;4.77;2.23;;;15.30;99.90;;;;;;5089089;28;20489;-78
2022/11/11 12:12:13;;;;;;;3.90;2.80;;;15.40;99.90;;;;;;5046911;28;20493;-78
2022/11/11 12:15:07;;;;;;;4.17;3.50;;;15.40;99.90;;;;;;5080175;28;20969;-78
2022/11/11 12:17:51;;;;;;;6.97;5.27;;;15.50;99.90;;;;;;5083323;28;20466;-79
2022/11/11 12:20:25;;;;;;;5.03;4.33;;;15.50;99.90;;;;;;5083179;28;20463;-78
2022/11/11 12:23:11;;;;;;;3.73;2.80;;;15.50;99.90;;;;;;5082575;28;20464;-77
2022/11/11 12:26:03;;;;;;;4.37;3.90;;;15.50;99.90;;;;;;5083983;28;20540;-79
2022/11/11 12:28:51;;;;;;;4.83;3.93;;;15.50;99.90;;;;;;5071767;28;20450;-79
2022/11/11 12:31:28;;;;;;;3.00;2.77;;;15.50;99.90;;;;;;5092175;28;20478;-77
2022/11/11 12:34:12;;;;;;;3.00;2.57;;;15.50;99.90;;;;;;5076415;28;20457;-78
2022/11/11 12:36:48;;;;;;;2.90;2.00;;;15.50;99.90;;;;;;5076128;28;20470;-79
2022/11/11 12:39:30;;;;;;;7.43;5.00;;;15.60;99.90;;;;;;5075025;28;20477;-79
2022/11/11 12:42:08;;;;;;;5.00;3.70;;;15.60;99.90;;;;;;5074318;28;20888;-77
2022/11/11 12:44:51;;;;;;;3.30;3.00;;;15.60;99.90;;;;;;5079295;28;20465;-78
2022/11/11 12:47:35;;;;;;;4.53;2.77;;;15.60;99.90;;;;;;5075695;28;20469;-78
2022/11/11 12:50:15;;;;;;;2.93;2.43;;;15.60;99.90;;;;;;5075204;28;20916;-77
2022/11/11 12:53:05;;;;;;;7.03;4.67;;;15.60;99.90;;;;;;5074271;28;20462;-76
2022/11/11 12:55:40;;;;;;;3.40;3.10;;;15.70;99.90;;;;;;5062544;28;20455;-79
2022/11/11 12:58:26;;;;;;;2.90;2.53;;;15.70;99.90;;;;;;5074214;28;20493;-77
2022/11/11 13:01:05;;;;;;;2.47;2.30;;;15.70;99.90;;;;;;5073852;28;20461;-77
2022/11/11 13:03:52;;;;;;;3.80;3.00;;;15.70;99.90;;;;;;5073476;28;20528;-78
2022/11/11 13:06:47;;;;;;;8.30;4.93;;;15.70;99.90;;;;;;5072861;28;20505;-77
2022/11/11 13:09:37;;;;;;;4.90;3.00;;;15.70;99.90;;;;;;5079278;28;20816;-79
2022/11/11 13:12:12;;;;;;;7.50;3.40;;;15.70;99.90;;;;;;5073793;28;20484;-79
2022/11/11 13:14:57;;;;;;;2.73;2.53;;;15.70;99.90;;;;;;5073594;28;20468;-79
2022/11/11 13:17:27;;;;;;;6.00;3.80;;;15.70;99.90;;;;;;5073637;28;20528;-80
2022/11/11 13:19:59;;;;;;;4.00;2.80;;;15.70;99.90;;;;;;5074796;28;20541;-78
2022/11/11 13:22:28;;;;;;;3.93;2.37;;;15.70;99.90;;;;;;5072761;28;20848;-80
2022/11/11 13:25:02;;;;;;;4.40;2.70;;;15.70;99.90;;;;;;5070468;28;21035;-80
2022/11/11 13:27:39;;;;;;;4.33;2.80;;;15.70;99.90;;;;;;5073828;28;20834;-80
2022/11/11 13:30:38;;;;;;;4.10;2.37;;;15.70;99.90;;;;;;5083018;28;20475;-79
2022/11/11 13:33:09;;;;;;;4.90;2.20;;;15.70;99.90;;;;;;5074032;28;20462;-79
2022/11/11 13:35:40;;;;;;;3.30;2.53;;;15.70;99.90;;;;;;5078500;28;20478;-79
2022/11/11 13:38:13;;;;;;;2.80;2.43;;;15.70;99.90;;;;;;5081678;28;20490;-79
2022/11/11 13:40:47;;;;;;;4.23;3.80;;;15.70;99.90;;;;;;5080532;28;20963;-79
2022/11/11 13:43:45;;;;;;;5.90;3.90;;;15.70;99.90;;;;;;5075876;28;20473;-79
2022/11/11 13:46:53;;;;;;;4.20;3.80;;;15.70;99.90;;;;;;5066068;28;20891;-80
2022/11/11 13:49:25;;;;;;;4.13;2.93;;;15.70;99.90;;;;;;5083627;28;20531;-79
2022/11/11 13:52:02;;;;;;;4.87;3.80;;;15.70;99.90;;;;;;5078661;28;20471;-79
2022/11/11 13:54:40;;;;;;;2.90;2.60;;;15.70;99.90;;;;;;5083665;28;20458;-79
2022/11/11 13:57:22;;;;;;;4.20;3.07;;;15.70;99.90;;;;;;5076458;28;20467;-78
2022/11/11 14:00:02;;;;;;;3.17;2.90;;;15.70;99.90;;;;;;5080278;28;20465;-79
2022/11/11 14:02:32;;;;;;;2.77;2.57;;;15.70;99.90;;;;;;5079935;28;20446;-78
2022/11/11 14:05:21;;;;;;;2.87;2.57;;;15.60;99.90;;;;;;5081215;28;20803;-77
2022/11/11 14:07:55;;;;;;;2.53;2.30;;;15.70;99.90;;;;;;5076497;28;20467;-77
2022/11/11 14:10:50;;;;;;;3.97;2.70;;;15.60;99.90;;;;;;5082347;28;20514;-76
2022/11/11 14:13:41;;;;;;;4.80;2.57;;;15.60;99.90;;;;;;5076759;28;20485;-77
2022/11/11 14:16:13;;;;;;;2.27;1.97;;;15.60;99.90;;;;;;5068442;28;20466;-77
2022/11/11 14:18:43;;;;;;;3.23;2.90;;;15.60;99.90;;;;;;5072514;28;20985;-77
2022/11/11 14:21:13;;;;;;;4.53;3.23;;;15.60;99.90;;;;;;5085458;28;20488;-78
2022/11/11 14:23:54;;;;;;;4.57;4.17;;;15.50;99.90;;;;;;5077252;28;20473;-78
2022/11/11 14:26:31;;;;;;;6.90;4.20;;;15.50;99.90;;;;;;5075881;28;20455;-78
2022/11/11 14:29:02;;;;;;;5.73;4.30;;;15.50;99.90;;;;;;5068444;28;20470;-77
2022/11/11 14:31:54;;;;;;;4.70;3.60;;;15.50;99.90;;;;;;5067153;28;20488;-77
2022/11/11 14:34:37;;;;;;;4.87;3.50;;;15.50;99.90;;;;;;5077465;28;20541;-77
2022/11/11 14:37:16;;;;;;;3.83;3.40;;;15.50;99.90;;;;;;5077020;28;20877;-77
2022/11/11 14:39:51;;;;;;;3.77;3.03;;;15.40;99.90;;;;;;5076704;28;20539;-79
2022/11/11 14:42:45;;;;;;;4.00;3.00;;;15.40;99.90;;;;;;5067346;28;20548;-79
2022/11/11 14:45:58;;;;;;;3.53;2.20;;;15.40;99.90;;;;;;5059352;28;20528;-79
2022/11/11 14:49:08;;;;;;;4.37;3.10;;;15.40;99.90;;;;;;5071358;28;20549;-78